Clipper Kamoshio — 3FSK2 — position and weather

sailwx.info

Track history (hours):
 
Tides and Currents Weather Stations Pressure Air Temp Water Temp Dewpoint Dewpoint Depression Visibility Wind Speed Wind Dir Waves Ship Positions

Clipper Kamoshio

Last reported at 2018-Feb-18 23:04 UTC. Time now 2018-Feb-19 12:19 UTC.
Position N 36°33' E 013°46'.

Length 177 m; draft 7.9 m.

Type: Cargo ship. MMSI: 353262000.

Date/timePositionNaut miles runAvg speedWind from/ knotsBaromVisibWave heightAir tempDewpointWater temp
2018-Feb-18 23:04N 36°33' E 013°46'714.4
2018-Feb-18 22:35N 36°30' E 013°54'314.2
2018-Feb-18 22:24N 36°29' E 013°57'614.1
2018-Feb-18 21:59N 36°26' E 014°03'714.2
2018-Feb-18 21:30N 36°24' E 014°11'714.3
2018-Feb-18 21:00N 36°21' E 014°19'714.6
2018-Feb-18 20:30N 36°18' E 014°28'714.2
2018-Feb-18 20:00N 36°17' E 014°36'714.3
2018-Feb-18 19:29N 36°17' E 014°46'  
Track history (hours):
 
Tides and Currents Weather Stations Pressure Air Temp Water Temp Dewpoint Dewpoint Depression Visibility Wind Speed Wind Dir Waves Ship Positions

Clipper Kamoshio

Last reported at 2018-Feb-18 23:04 UTC. Time now 2018-Feb-19 12:19 UTC.
Position N 36°33' E 013°46'.

Length 177 m; draft 7.9 m.

Type: Cargo ship. MMSI: 353262000.

Date/timePositionNaut miles runAvg speedWind from/ knotsBaromVisibWave heightAir tempDewpointWater temp
2018-Feb-18 23:04N 36°33' E 013°46'714.4
2018-Feb-18 22:35N 36°30' E 013°54'314.2
2018-Feb-18 22:24N 36°29' E 013°57'614.1
2018-Feb-18 21:59N 36°26' E 014°03'714.2
2018-Feb-18 21:30N 36°24' E 014°11'714.3
2018-Feb-18 21:00N 36°21' E 014°19'714.6
2018-Feb-18 20:30N 36°18' E 014°28'714.2
2018-Feb-18 20:00N 36°17' E 014°36'714.3
2018-Feb-18 19:29N 36°17' E 014°46'  

Dump ship's entire track history